RA44704 UGTB-URSS
Flight info
| Callsign | RA44704 |
|---|---|
| Flight time | 0h 50m |
| Altitude | 36000 |
| Route | TBS N61 DEDON L850 BANUT |
| Aircraft | B752/M-SDFGHIRWY/S |
Departure
| Time | 2026-04-26 14:38 |
|---|---|
| Airport | Tbilisi International Airport (UGTB) |
Arrival
| Time | 2026-04-26 15:28 |
|---|---|
| Airport | Sochi International Airport (URSS) |
| Time | Latitude | Longitude | Altitude | Speed | Heading |
|---|---|---|---|---|---|
| 2026-04-26 14:19 | 41.66901 | 44.96018 | 1575 ft | 0 kts | 223° |
| 2026-04-26 14:30 | 41.66901 | 44.96019 | 1575 ft | 1 kts | 223° |
| 2026-04-26 14:30 | 41.66912 | 44.96032 | 1576 ft | 2 kts | 223° |
| 2026-04-26 14:31 | 41.66923 | 44.96046 | 1577 ft | 2 kts | 223° |
| 2026-04-26 14:31 | 41.66934 | 44.96059 | 1577 ft | 2 kts | 223° |
| 2026-04-26 14:31 | 41.66944 | 44.96074 | 1577 ft | 2 kts | 251° |
| 2026-04-26 14:31 | 41.66945 | 44.96094 | 1577 ft | 2 kts | 283° |
| 2026-04-26 14:32 | 41.66940 | 44.96109 | 1576 ft | 0 kts | 310° |
| 2026-04-26 14:32 | 41.66936 | 44.96115 | 1576 ft | 1 kts | 314° |
| 2026-04-26 14:32 | 41.66935 | 44.96115 | 1576 ft | 0 kts | 314° |
| 2026-04-26 14:33 | 41.66943 | 44.96105 | 1577 ft | 5 kts | 313° |
| 2026-04-26 14:33 | 41.66983 | 44.96048 | 1580 ft | 9 kts | 313° |
| 2026-04-26 14:34 | 41.67030 | 44.95981 | 1583 ft | 10 kts | 313° |
| 2026-04-26 14:34 | 41.67077 | 44.95888 | 1584 ft | 13 kts | 305° |
| 2026-04-26 14:34 | 41.67162 | 44.95766 | 1581 ft | 22 kts | 314° |
| 2026-04-26 14:34 | 41.67274 | 44.95608 | 1580 ft | 23 kts | 313° |
| 2026-04-26 14:35 | 41.67384 | 44.95450 | 1584 ft | 21 kts | 313° |
| 2026-04-26 14:35 | 41.67476 | 44.95306 | 1591 ft | 18 kts | 311° |
| 2026-04-26 14:35 | 41.67554 | 44.95195 | 1597 ft | 15 kts | 313° |
| 2026-04-26 14:35 | 41.67623 | 44.95098 | 1599 ft | 13 kts | 313° |
| 2026-04-26 14:36 | 41.67665 | 44.94994 | 1599 ft | 13 kts | 263° |
| 2026-04-26 14:36 | 41.67635 | 44.94864 | 1596 ft | 16 kts | 253° |
| 2026-04-26 14:36 | 41.67597 | 44.94689 | 1586 ft | 22 kts | 254° |
| 2026-04-26 14:36 | 41.67558 | 44.94518 | 1584 ft | 17 kts | 252° |
| 2026-04-26 14:37 | 41.67515 | 44.94401 | 1583 ft | 7 kts | 223° |
| 2026-04-26 14:37 | 41.67467 | 44.94408 | 1582 ft | 11 kts | 139° |
| 2026-04-26 14:37 | 41.67374 | 44.94523 | 1577 ft | 38 kts | 135° |
| 2026-04-26 14:37 | 41.66901 | 44.95132 | 1552 ft | 146 kts | 136° |
| 2026-04-26 14:38 | 41.66044 | 44.96212 | 2181 ft | 189 kts | 136° |
| 2026-04-26 14:38 | 41.65080 | 44.97396 | 3331 ft | 198 kts | 135° |
| 2026-04-26 14:38 | 41.64027 | 44.98718 | 4060 ft | 219 kts | 139° |
| 2026-04-26 14:38 | 41.63150 | 44.99427 | 4565 ft | 233 kts | 160° |
| 2026-04-26 14:39 | 41.60923 | 44.99350 | 5614 ft | 260 kts | 203° |
| 2026-04-26 14:39 | 41.59430 | 44.97869 | 6393 ft | 279 kts | 233° |
| 2026-04-26 14:39 | 41.58657 | 44.95553 | 7516 ft | 281 kts | 262° |
| 2026-04-26 14:39 | 41.58804 | 44.93054 | 8719 ft | 279 kts | 288° |
| 2026-04-26 14:40 | 41.59826 | 44.90852 | 9764 ft | 287 kts | 315° |
| 2026-04-26 14:40 | 41.61534 | 44.89469 | 10728 ft | 299 kts | 339° |
| 2026-04-26 14:40 | 41.63565 | 44.88591 | 11298 ft | 319 kts | 335° |
| 2026-04-26 14:40 | 41.65578 | 44.87164 | 11866 ft | 336 kts | 325° |
| 2026-04-26 14:41 | 41.67502 | 44.85350 | 12628 ft | 346 kts | 320° |
| 2026-04-26 14:41 | 41.69398 | 44.83358 | 13638 ft | 349 kts | 318° |
| 2026-04-26 14:41 | 41.71255 | 44.81285 | 14560 ft | 354 kts | 317° |
| 2026-04-26 14:41 | 41.73115 | 44.79127 | 15466 ft | 359 kts | 316° |
| 2026-04-26 14:42 | 41.74995 | 44.76895 | 16390 ft | 364 kts | 315° |
| 2026-04-26 14:42 | 41.76891 | 44.74619 | 17238 ft | 370 kts | 315° |
| 2026-04-26 14:42 | 41.78791 | 44.72319 | 18092 ft | 375 kts | 315° |
| 2026-04-26 14:42 | 41.80721 | 44.69971 | 18987 ft | 379 kts | 315° |
| 2026-04-26 14:43 | 41.82686 | 44.67576 | 19829 ft | 384 kts | 315° |
| 2026-04-26 14:43 | 41.84652 | 44.65171 | 20642 ft | 388 kts | 315° |
| 2026-04-26 14:43 | 41.86652 | 44.62724 | 21443 ft | 393 kts | 314° |
| 2026-04-26 14:43 | 41.88676 | 44.60239 | 22242 ft | 397 kts | 314° |
| 2026-04-26 14:44 | 41.90527 | 44.57488 | 22991 ft | 398 kts | 303° |
| 2026-04-26 14:44 | 41.91953 | 44.54308 | 23726 ft | 398 kts | 292° |
| 2026-04-26 14:44 | 41.92940 | 44.50924 | 24591 ft | 396 kts | 287° |
| 2026-04-26 14:44 | 41.93867 | 44.47411 | 25266 ft | 400 kts | 286° |
| 2026-04-26 14:45 | 41.94778 | 44.43887 | 26104 ft | 400 kts | 285° |
| 2026-04-26 14:45 | 41.95372 | 44.41554 | 26687 ft | 398 kts | 285° |
| 2026-04-26 14:45 | 41.96531 | 44.36960 | 28067 ft | 389 kts | 284° |
| 2026-04-26 14:45 | 41.97374 | 44.33588 | 29045 ft | 383 kts | 283° |
| 2026-04-26 14:46 | 41.98209 | 44.30225 | 29916 ft | 378 kts | 282° |
| 2026-04-26 14:46 | 41.99043 | 44.26843 | 30055 ft | 384 kts | 282° |
| 2026-04-26 14:46 | 41.99875 | 44.23472 | 30041 ft | 377 kts | 282° |
| 2026-04-26 14:47 | 42.01494 | 44.16890 | 30048 ft | 373 kts | 281° |
| 2026-04-26 14:47 | 42.03117 | 44.10255 | 30042 ft | 376 kts | 282° |
| 2026-04-26 14:48 | 42.04747 | 44.03587 | 30026 ft | 373 kts | 282° |
| 2026-04-26 14:48 | 42.06361 | 43.96960 | 30014 ft | 375 kts | 282° |
| 2026-04-26 14:49 | 42.07979 | 43.90305 | 30014 ft | 374 kts | 282° |
| 2026-04-26 14:49 | 42.09586 | 43.83670 | 30015 ft | 375 kts | 282° |
| 2026-04-26 14:50 | 42.11194 | 43.77015 | 30010 ft | 373 kts | 282° |
| 2026-04-26 14:50 | 42.12803 | 43.70337 | 30008 ft | 376 kts | 282° |
| 2026-04-26 14:51 | 42.14401 | 43.63682 | 30016 ft | 374 kts | 281° |
| 2026-04-26 14:51 | 42.15989 | 43.57050 | 30027 ft | 373 kts | 282° |
| 2026-04-26 14:52 | 42.17585 | 43.50365 | 30023 ft | 375 kts | 282° |
| 2026-04-26 14:52 | 42.19169 | 43.43713 | 30020 ft | 375 kts | 281° |
| 2026-04-26 14:53 | 42.20752 | 43.37038 | 30035 ft | 376 kts | 282° |
| 2026-04-26 14:53 | 42.22345 | 43.30313 | 30034 ft | 375 kts | 281° |
| 2026-04-26 14:54 | 42.23925 | 43.23619 | 30026 ft | 376 kts | 281° |
| 2026-04-26 14:54 | 42.25504 | 43.16905 | 30027 ft | 377 kts | 281° |
| 2026-04-26 14:55 | 42.27080 | 43.10186 | 30037 ft | 376 kts | 281° |
| 2026-04-26 14:55 | 42.28703 | 43.03431 | 30032 ft | 379 kts | 282° |
| 2026-04-26 14:56 | 42.30349 | 42.96752 | 30027 ft | 377 kts | 282° |
| 2026-04-26 14:56 | 42.32000 | 42.90020 | 30027 ft | 379 kts | 282° |
| 2026-04-26 14:57 | 42.33631 | 42.83350 | 30040 ft | 380 kts | 282° |
| 2026-04-26 14:57 | 42.35292 | 42.76544 | 30020 ft | 381 kts | 282° |
| 2026-04-26 14:58 | 42.36936 | 42.69785 | 30028 ft | 381 kts | 283° |
| 2026-04-26 14:58 | 42.38592 | 42.62956 | 30011 ft | 382 kts | 282° |
| 2026-04-26 14:59 | 42.40233 | 42.56163 | 30009 ft | 383 kts | 283° |
| 2026-04-26 14:59 | 42.41890 | 42.49294 | 30010 ft | 383 kts | 283° |
| 2026-04-26 15:00 | 42.43527 | 42.42479 | 30013 ft | 382 kts | 283° |
| 2026-04-26 15:00 | 42.45175 | 42.35601 | 30004 ft | 384 kts | 283° |
| 2026-04-26 15:01 | 42.46809 | 42.28763 | 29987 ft | 384 kts | 282° |
| 2026-04-26 15:01 | 42.48448 | 42.21878 | 29970 ft | 385 kts | 283° |
| 2026-04-26 15:02 | 42.50081 | 42.14999 | 29977 ft | 387 kts | 283° |
| 2026-04-26 15:02 | 42.51718 | 42.08083 | 29978 ft | 387 kts | 283° |
| 2026-04-26 15:03 | 42.53359 | 42.01131 | 30000 ft | 386 kts | 283° |
| 2026-04-26 15:03 | 42.54980 | 41.94244 | 29992 ft | 385 kts | 283° |
| 2026-04-26 15:04 | 42.56603 | 41.87317 | 29997 ft | 386 kts | 283° |
| 2026-04-26 15:04 | 42.58229 | 41.80366 | 29971 ft | 386 kts | 283° |
| 2026-04-26 15:05 | 42.59837 | 41.73466 | 29959 ft | 386 kts | 283° |
| 2026-04-26 15:05 | 42.61454 | 41.66506 | 29962 ft | 387 kts | 283° |
| 2026-04-26 15:06 | 42.63057 | 41.59586 | 29960 ft | 387 kts | 283° |
| 2026-04-26 15:06 | 42.64669 | 41.52603 | 29952 ft | 387 kts | 284° |
| 2026-04-26 15:07 | 42.67076 | 41.42139 | 29928 ft | 390 kts | 283° |
| 2026-04-26 15:07 | 42.68689 | 41.35101 | 29927 ft | 390 kts | 284° |
| 2026-04-26 15:08 | 42.70289 | 41.28096 | 29933 ft | 389 kts | 283° |
| 2026-04-26 15:08 | 42.71890 | 41.21052 | 29429 ft | 398 kts | 283° |
| 2026-04-26 15:09 | 42.72705 | 41.17465 | 28919 ft | 396 kts | 284° |
| 2026-04-26 15:09 | 42.73509 | 41.13923 | 28415 ft | 392 kts | 284° |
| 2026-04-26 15:09 | 42.74308 | 41.10392 | 27920 ft | 392 kts | 284° |
| 2026-04-26 15:09 | 42.75111 | 41.06835 | 27426 ft | 395 kts | 284° |
| 2026-04-26 15:10 | 42.75907 | 41.03311 | 26931 ft | 393 kts | 284° |
| 2026-04-26 15:10 | 42.76434 | 41.00972 | 26602 ft | 391 kts | 284° |
| 2026-04-26 15:10 | 42.77492 | 40.96273 | 25952 ft | 386 kts | 284° |
| 2026-04-26 15:10 | 42.78273 | 40.92794 | 25473 ft | 384 kts | 284° |
| 2026-04-26 15:11 | 42.79038 | 40.89380 | 25010 ft | 381 kts | 284° |
| 2026-04-26 15:11 | 42.79809 | 40.85936 | 24542 ft | 378 kts | 284° |
| 2026-04-26 15:11 | 42.80573 | 40.82520 | 24084 ft | 376 kts | 284° |
| 2026-04-26 15:11 | 42.81319 | 40.79171 | 23633 ft | 373 kts | 284° |
| 2026-04-26 15:12 | 42.82071 | 40.75795 | 23184 ft | 370 kts | 284° |
| 2026-04-26 15:12 | 42.82815 | 40.72451 | 22742 ft | 368 kts | 284° |
| 2026-04-26 15:12 | 42.83552 | 40.69133 | 22297 ft | 366 kts | 284° |
| 2026-04-26 15:12 | 42.84280 | 40.65852 | 21859 ft | 362 kts | 284° |
| 2026-04-26 15:13 | 42.85004 | 40.62579 | 21429 ft | 359 kts | 284° |
| 2026-04-26 15:13 | 42.85712 | 40.59375 | 21007 ft | 358 kts | 285° |
| 2026-04-26 15:13 | 42.86427 | 40.56136 | 20575 ft | 356 kts | 284° |
| 2026-04-26 15:13 | 42.87136 | 40.52917 | 20146 ft | 354 kts | 285° |
| 2026-04-26 15:14 | 42.87842 | 40.49712 | 19732 ft | 353 kts | 285° |
| 2026-04-26 15:14 | 42.88543 | 40.46521 | 19299 ft | 351 kts | 285° |
| 2026-04-26 15:14 | 42.89239 | 40.43348 | 18877 ft | 349 kts | 285° |
| 2026-04-26 15:14 | 42.89933 | 40.40180 | 18462 ft | 347 kts | 285° |
| 2026-04-26 15:15 | 42.90615 | 40.37062 | 18047 ft | 346 kts | 285° |
| 2026-04-26 15:15 | 42.91298 | 40.33937 | 17630 ft | 344 kts | 284° |
| 2026-04-26 15:15 | 42.91972 | 40.30848 | 17230 ft | 342 kts | 284° |
| 2026-04-26 15:15 | 42.92651 | 40.27731 | 16829 ft | 340 kts | 284° |
| 2026-04-26 15:16 | 42.93317 | 40.24665 | 16417 ft | 338 kts | 284° |
| 2026-04-26 15:16 | 42.93979 | 40.21620 | 16003 ft | 336 kts | 284° |
| 2026-04-26 15:16 | 42.94639 | 40.18576 | 15307 ft | 331 kts | 284° |
| 2026-04-26 15:16 | 42.95276 | 40.15636 | 14562 ft | 327 kts | 284° |
| 2026-04-26 15:17 | 42.95924 | 40.12639 | 13796 ft | 327 kts | 284° |
| 2026-04-26 15:17 | 42.96344 | 40.10692 | 13395 ft | 323 kts | 284° |
| 2026-04-26 15:17 | 42.97171 | 40.06862 | 12914 ft | 299 kts | 284° |
| 2026-04-26 15:17 | 42.97736 | 40.04246 | 12462 ft | 282 kts | 284° |
| 2026-04-26 15:18 | 42.98278 | 40.01728 | 11714 ft | 278 kts | 284° |
| 2026-04-26 15:18 | 42.98815 | 39.99221 | 10892 ft | 275 kts | 284° |
| 2026-04-26 15:18 | 42.99372 | 39.96756 | 10128 ft | 273 kts | 285° |
| 2026-04-26 15:18 | 42.99947 | 39.94310 | 9334 ft | 271 kts | 285° |
| 2026-04-26 15:19 | 43.00513 | 39.91884 | 8495 ft | 271 kts | 285° |
| 2026-04-26 15:19 | 43.01074 | 39.89480 | 8035 ft | 262 kts | 285° |
| 2026-04-26 15:19 | 43.01628 | 39.87103 | 7602 ft | 265 kts | 285° |
| 2026-04-26 15:19 | 43.02187 | 39.84697 | 7213 ft | 266 kts | 285° |
| 2026-04-26 15:20 | 43.02746 | 39.82296 | 6830 ft | 265 kts | 285° |
| 2026-04-26 15:20 | 43.03558 | 39.80047 | 6519 ft | 266 kts | 309° |
| 2026-04-26 15:20 | 43.05044 | 39.78536 | 6199 ft | 271 kts | 338° |
| 2026-04-26 15:20 | 43.06899 | 39.78134 | 5836 ft | 273 kts | 4° |
| 2026-04-26 15:21 | 43.08757 | 39.78456 | 5454 ft | 272 kts | 8° |
| 2026-04-26 15:21 | 43.10638 | 39.78807 | 5079 ft | 269 kts | 8° |
| 2026-04-26 15:21 | 43.12369 | 39.79145 | 4732 ft | 267 kts | 9° |
| 2026-04-26 15:21 | 43.14205 | 39.79514 | 4359 ft | 266 kts | 9° |
| 2026-04-26 15:22 | 43.16027 | 39.79886 | 4010 ft | 264 kts | 9° |
| 2026-04-26 15:22 | 43.17817 | 39.80254 | 3674 ft | 263 kts | 10° |
| 2026-04-26 15:22 | 43.19627 | 39.80629 | 3349 ft | 261 kts | 10° |
| 2026-04-26 15:22 | 43.21421 | 39.81001 | 3009 ft | 260 kts | 10° |
| 2026-04-26 15:23 | 43.23208 | 39.81374 | 2691 ft | 259 kts | 10° |
| 2026-04-26 15:23 | 43.24992 | 39.81703 | 2372 ft | 259 kts | 8° |
| 2026-04-26 15:23 | 43.26751 | 39.82144 | 2053 ft | 254 kts | 24° |
| 2026-04-26 15:23 | 43.28275 | 39.83214 | 1987 ft | 239 kts | 30° |
| 2026-04-26 15:24 | 43.29694 | 39.84244 | 1980 ft | 226 kts | 29° |
| 2026-04-26 15:24 | 43.31045 | 39.85233 | 1978 ft | 212 kts | 30° |
| 2026-04-26 15:24 | 43.32309 | 39.86166 | 1991 ft | 199 kts | 30° |
| 2026-04-26 15:24 | 43.33485 | 39.87036 | 2004 ft | 184 kts | 30° |
| 2026-04-26 15:25 | 43.34564 | 39.87838 | 1877 ft | 170 kts | 30° |
| 2026-04-26 15:25 | 43.35244 | 39.88343 | 1757 ft | 158 kts | 31° |
| 2026-04-26 15:25 | 43.36420 | 39.89224 | 1519 ft | 136 kts | 32° |
| 2026-04-26 15:25 | 43.37249 | 39.89842 | 1345 ft | 135 kts | 30° |
| 2026-04-26 15:26 | 43.38089 | 39.90466 | 1195 ft | 138 kts | 31° |
| 2026-04-26 15:26 | 43.38928 | 39.91083 | 1011 ft | 138 kts | 29° |
| 2026-04-26 15:26 | 43.39768 | 39.91700 | 830 ft | 134 kts | 30° |
| 2026-04-26 15:26 | 43.40583 | 39.92325 | 647 ft | 134 kts | 31° |
| 2026-04-26 15:27 | 43.41399 | 39.92959 | 473 ft | 134 kts | 29° |
| 2026-04-26 15:27 | 43.42205 | 39.93556 | 324 ft | 129 kts | 28° |
| 2026-04-26 15:27 | 43.42979 | 39.94129 | 166 ft | 125 kts | 28° |
| 2026-04-26 15:27 | 43.43751 | 39.94713 | 67 ft | 129 kts | 28° |
| 2026-04-26 15:28 | 43.44448 | 39.95229 | 69 ft | 89 kts | 28° |
| 2026-04-26 15:28 | 43.44866 | 39.95540 | 75 ft | 49 kts | 27° |
| 2026-04-26 15:28 | 43.45072 | 39.95695 | 74 ft | 18 kts | 29° |
| 2026-04-26 15:28 | 43.45183 | 39.95779 | 72 ft | 21 kts | 29° |
| 2026-04-26 15:29 | 43.45262 | 39.95840 | 75 ft | 10 kts | 29° |
| 2026-04-26 15:29 | 43.45297 | 39.95821 | 75 ft | 10 kts | 263° |
| 2026-04-26 15:29 | 43.45192 | 39.95567 | 75 ft | 16 kts | 235° |
| 2026-04-26 15:30 | 43.45078 | 39.95316 | 75 ft | 15 kts | 245° |
| 2026-04-26 15:30 | 43.45032 | 39.95182 | 68 ft | 13 kts | 244° |
| 2026-04-26 15:30 | 43.44981 | 39.95070 | 61 ft | 14 kts | 226° |
| 2026-04-26 15:31 | 43.44928 | 39.94938 | 59 ft | 16 kts | 245° |
| 2026-04-26 15:31 | 43.44819 | 39.94617 | 55 ft | 20 kts | 245° |
| 2026-04-26 15:31 | 43.44770 | 39.94471 | 60 ft | 4 kts | 245° |
| 2026-04-26 15:32 | 43.44761 | 39.94426 | 62 ft | 0 kts | 294° |
| 2026-04-26 15:32 | 43.44781 | 39.94401 | 63 ft | 6 kts | 329° |
| 2026-04-26 15:32 | 43.44805 | 39.94385 | 65 ft | 0 kts | 334° |
| 2026-04-26 15:33 | 43.44810 | 39.94381 | 65 ft | 0 kts | 334° |